sensor_id;sensor_type;location;lat;lon;timestamp;pressure;altitude;pressure_sealevel;temperature;humidity
2192;BME280;1102;49.718;11.902;2023-03-14T00:01:26;94532.63;;;7.94;100.00
2192;BME280;1102;49.718;11.902;2023-03-14T00:03:53;94494.66;;;7.69;100.00
2192;BME280;1102;49.718;11.902;2023-03-14T00:06:22;94490.63;;;7.52;100.00
2192;BME280;1102;49.718;11.902;2023-03-14T00:08:49;94508.00;;;7.83;100.00
2192;BME280;1102;49.718;11.902;2023-03-14T00:11:19;94514.22;;;7.94;100.00
2192;BME280;1102;49.718;11.902;2023-03-14T00:13:50;94478.50;;;7.70;100.00
2192;BME280;1102;49.718;11.902;2023-03-14T00:16:18;94479.97;;;7.68;100.00
2192;BME280;1102;49.718;11.902;2023-03-14T00:18:45;94423.81;;;7.30;100.00
2192;BME280;1102;49.718;11.902;2023-03-14T00:21:12;94523.84;;;7.87;100.00
2192;BME280;1102;49.718;11.902;2023-03-14T00:23:41;94478.59;;;7.51;100.00
2192;BME280;1102;49.718;11.902;2023-03-14T00:26:10;94505.78;;;7.36;100.00
2192;BME280;1102;49.718;11.902;2023-03-14T00:28:38;94506.44;;;7.33;100.00
2192;BME280;1102;49.718;11.902;2023-03-14T00:31:07;94499.56;;;7.25;100.00
2192;BME280;1102;49.718;11.902;2023-03-14T00:33:35;94489.09;;;7.28;100.00
2192;BME280;1102;49.718;11.902;2023-03-14T00:36:08;94515.41;;;7.51;100.00
2192;BME280;1102;49.718;11.902;2023-03-14T00:38:37;94527.28;;;7.64;100.00
2192;BME280;1102;49.718;11.902;2023-03-14T00:41:08;94526.88;;;7.62;100.00
2192;BME280;1102;49.718;11.902;2023-03-14T00:43:36;94527.38;;;7.71;100.00
2192;BME280;1102;49.718;11.902;2023-03-14T00:46:05;94496.81;;;7.40;100.00
2192;BME280;1102;49.718;11.902;2023-03-14T00:48:33;94538.41;;;7.58;100.00
2192;BME280;1102;49.718;11.902;2023-03-14T00:51:00;94507.69;;;7.39;100.00
2192;BME280;1102;49.718;11.902;2023-03-14T00:53:27;94513.06;;;7.04;100.00
2192;BME280;1102;49.718;11.902;2023-03-14T00:55:54;94494.03;;;6.88;100.00
2192;BME280;1102;49.718;11.902;2023-03-14T00:58:20;94523.81;;;6.95;100.00
2192;BME280;1102;49.718;11.902;2023-03-14T01:00:49;94528.72;;;6.97;100.00
2192;BME280;1102;49.718;11.902;2023-03-14T01:03:16;94531.25;;;6.93;100.00
2192;BME280;1102;49.718;11.902;2023-03-14T01:05:43;94499.06;;;6.77;100.00
2192;BME280;1102;49.718;11.902;2023-03-14T01:08:09;94529.38;;;6.94;100.00
2192;BME280;1102;49.718;11.902;2023-03-14T01:10:39;94532.09;;;6.97;100.00
2192;BME280;1102;49.718;11.902;2023-03-14T01:13:07;94559.16;;;7.21;100.00
2192;BME280;1102;49.718;11.902;2023-03-14T01:15:36;94564.34;;;7.36;100.00
2192;BME280;1102;49.718;11.902;2023-03-14T01:18:03;94585.50;;;7.44;100.00
2192;BME280;1102;49.718;11.902;2023-03-14T01:20:30;94558.75;;;7.19;100.00
2192;BME280;1102;49.718;11.902;2023-03-14T01:22:57;94577.31;;;7.26;100.00
2192;BME280;1102;49.718;11.902;2023-03-14T01:25:24;94547.94;;;7.01;100.00
2192;BME280;1102;49.718;11.902;2023-03-14T01:27:51;94539.78;;;6.87;100.00
2192;BME280;1102;49.718;11.902;2023-03-14T01:30:17;94540.97;;;6.70;100.00
2192;BME280;1102;49.718;11.902;2023-03-14T01:32:44;94544.66;;;7.07;100.00
2192;BME280;1102;49.718;11.902;2023-03-14T01:35:11;94578.25;;;7.37;100.00
2192;BME280;1102;49.718;11.902;2023-03-14T01:37:38;94550.66;;;7.27;100.00
2192;BME280;1102;49.718;11.902;2023-03-14T01:40:10;94558.59;;;7.31;100.00
2192;BME280;1102;49.718;11.902;2023-03-14T01:42:38;94540.00;;;7.20;100.00
2192;BME280;1102;49.718;11.902;2023-03-14T01:45:05;94522.53;;;7.28;100.00
2192;BME280;1102;49.718;11.902;2023-03-14T01:47:32;94492.78;;;7.24;100.00
2192;BME280;1102;49.718;11.902;2023-03-14T01:50:02;94533.47;;;7.53;100.00
2192;BME280;1102;49.718;11.902;2023-03-14T01:52:34;94530.03;;;7.49;100.00
2192;BME280;1102;49.718;11.902;2023-03-14T01:55:05;94515.34;;;7.48;100.00
2192;BME280;1102;49.718;11.902;2023-03-14T01:57:37;94474.66;;;7.19;100.00
2192;BME280;1102;49.718;11.902;2023-03-14T02:00:09;94502.53;;;7.46;100.00
2192;BME280;1102;49.718;11.902;2023-03-14T02:02:46;94487.88;;;7.45;100.00
2192;BME280;1102;49.718;11.902;2023-03-14T02:05:19;94496.16;;;7.47;100.00
2192;BME280;1102;49.718;11.902;2023-03-14T02:07:56;94481.00;;;7.37;100.00
2192;BME280;1102;49.718;11.902;2023-03-14T02:10:32;94503.25;;;7.43;100.00
2192;BME280;1102;49.718;11.902;2023-03-14T02:13:03;94509.91;;;7.37;100.00
2192;BME280;1102;49.718;11.902;2023-03-14T02:15:53;94507.41;;;7.21;100.00
2192;BME280;1102;49.718;11.902;2023-03-14T02:18:41;94513.16;;;7.30;100.00
2192;BME280;1102;49.718;11.902;2023-03-14T02:22:08;94517.31;;;7.31;100.00
2192;BME280;1102;49.718;11.902;2023-03-14T02:24:50;94521.41;;;7.29;100.00
2192;BME280;1102;49.718;11.902;2023-03-14T02:27:22;94501.53;;;7.08;100.00
2192;BME280;1102;49.718;11.902;2023-03-14T02:30:01;94510.34;;;7.20;100.00
2192;BME280;1102;49.718;11.902;2023-03-14T02:32:31;94504.28;;;7.16;100.00
2192;BME280;1102;49.718;11.902;2023-03-14T02:35:01;94503.53;;;7.15;100.00
2192;BME280;1102;49.718;11.902;2023-03-14T02:37:38;94494.41;;;7.09;100.00
2192;BME280;1102;49.718;11.902;2023-03-14T02:40:06;94478.88;;;7.00;100.00
2192;BME280;1102;49.718;11.902;2023-03-14T02:42:34;94503.88;;;7.14;100.00
2192;BME280;1102;49.718;11.902;2023-03-14T02:47:42;94508.25;;;7.29;100.00
2192;BME280;1102;49.718;11.902;2023-03-14T02:50:14;94494.94;;;7.18;100.00
2192;BME280;1102;49.718;11.902;2023-03-14T02:52:42;94460.00;;;6.95;100.00
2192;BME280;1102;49.718;11.902;2023-03-14T02:55:09;94469.16;;;7.04;100.00
2192;BME280;1102;49.718;11.902;2023-03-14T02:57:38;94497.81;;;7.32;100.00
2192;BME280;1102;49.718;11.902;2023-03-14T03:00:05;94413.72;;;6.87;100.00
2192;BME280;1102;49.718;11.902;2023-03-14T03:02:35;94496.78;;;7.37;100.00
2192;BME280;1102;49.718;11.902;2023-03-14T03:05:02;94471.41;;;7.25;100.00
2192;BME280;1102;49.718;11.902;2023-03-14T03:07:28;94465.00;;;7.23;100.00
2192;BME280;1102;49.718;11.902;2023-03-14T03:09:56;94450.97;;;7.15;100.00
2192;BME280;1102;49.718;11.902;2023-03-14T03:12:23;94461.66;;;7.26;100.00
2192;BME280;1102;49.718;11.902;2023-03-14T03:14:49;94451.03;;;7.19;100.00
2192;BME280;1102;49.718;11.902;2023-03-14T03:17:16;94477.53;;;7.33;100.00
2192;BME280;1102;49.718;11.902;2023-03-14T03:19:43;94473.75;;;7.30;100.00
2192;BME280;1102;49.718;11.902;2023-03-14T03:22:10;94481.47;;;7.43;100.00
2192;BME280;1102;49.718;11.902;2023-03-14T03:24:39;94479.00;;;7.30;100.00
2192;BME280;1102;49.718;11.902;2023-03-14T03:27:06;94472.72;;;7.35;100.00
2192;BME280;1102;49.718;11.902;2023-03-14T03:29:33;94438.94;;;7.14;100.00
2192;BME280;1102;49.718;11.902;2023-03-14T03:32:00;94421.44;;;6.99;100.00
2192;BME280;1102;49.718;11.902;2023-03-14T03:34:27;94449.84;;;7.16;100.00
2192;BME280;1102;49.718;11.902;2023-03-14T03:36:58;94445.34;;;7.17;100.00
2192;BME280;1102;49.718;11.902;2023-03-14T03:39:28;94454.22;;;7.31;100.00
2192;BME280;1102;49.718;11.902;2023-03-14T03:41:55;94375.53;;;6.70;100.00
2192;BME280;1102;49.718;11.902;2023-03-14T03:44:22;94491.66;;;7.48;100.00
2192;BME280;1102;49.718;11.902;2023-03-14T03:46:50;94461.34;;;7.31;100.00
2192;BME280;1102;49.718;11.902;2023-03-14T03:49:17;94468.47;;;7.30;100.00
2192;BME280;1102;49.718;11.902;2023-03-14T03:51:44;94439.91;;;7.06;100.00
2192;BME280;1102;49.718;11.902;2023-03-14T03:54:10;94439.75;;;7.18;100.00
2192;BME280;1102;49.718;11.902;2023-03-14T03:56:37;94437.53;;;7.20;100.00
2192;BME280;1102;49.718;11.902;2023-03-14T03:59:05;94381.06;;;6.88;100.00
2192;BME280;1102;49.718;11.902;2023-03-14T04:01:32;94450.03;;;7.27;100.00
2192;BME280;1102;49.718;11.902;2023-03-14T04:03:59;94401.44;;;6.94;100.00
2192;BME280;1102;49.718;11.902;2023-03-14T04:06:26;94448.16;;;7.04;100.00
2192;BME280;1102;49.718;11.902;2023-03-14T04:08:56;94433.75;;;6.95;100.00
2192;BME280;1102;49.718;11.902;2023-03-14T04:11:33;94390.75;;;6.61;100.00
2192;BME280;1102;49.718;11.902;2023-03-14T04:14:32;94416.78;;;6.69;100.00
2192;BME280;1102;49.718;11.902;2023-03-14T04:17:16;94451.06;;;6.99;100.00
2192;BME280;1102;49.718;11.902;2023-03-14T04:19:43;94406.50;;;6.61;100.00
2192;BME280;1102;49.718;11.902;2023-03-14T04:22:10;94409.59;;;6.66;100.00
2192;BME280;1102;49.718;11.902;2023-03-14T04:24:45;94355.44;;;6.16;100.00
2192;BME280;1102;49.718;11.902;2023-03-14T04:27:12;94385.25;;;6.46;100.00
2192;BME280;1102;49.718;11.902;2023-03-14T04:29:42;94414.47;;;6.87;100.00
2192;BME280;1102;49.718;11.902;2023-03-14T04:32:10;94369.34;;;6.59;100.00
2192;BME280;1102;49.718;11.902;2023-03-14T04:34:38;94320.88;;;6.33;100.00
2192;BME280;1102;49.718;11.902;2023-03-14T04:37:05;94335.31;;;6.43;100.00
2192;BME280;1102;49.718;11.902;2023-03-14T04:39:37;94323.41;;;6.49;100.00
2192;BME280;1102;49.718;11.902;2023-03-14T04:42:15;94354.56;;;6.73;100.00
2192;BME280;1102;49.718;11.902;2023-03-14T04:44:42;94362.06;;;6.71;100.00
2192;BME280;1102;49.718;11.902;2023-03-14T04:47:10;94371.63;;;6.83;100.00
2192;BME280;1102;49.718;11.902;2023-03-14T04:49:39;94216.91;;;5.83;100.00
2192;BME280;1102;49.718;11.902;2023-03-14T04:52:07;94345.06;;;6.65;100.00
2192;BME280;1102;49.718;11.902;2023-03-14T04:54:36;94373.59;;;6.90;100.00
2192;BME280;1102;49.718;11.902;2023-03-14T04:57:03;94327.44;;;6.66;100.00
2192;BME280;1102;49.718;11.902;2023-03-14T04:59:33;94391.41;;;7.00;100.00
2192;BME280;1102;49.718;11.902;2023-03-14T05:02:14;94360.28;;;6.79;100.00
2192;BME280;1102;49.718;11.902;2023-03-14T05:04:53;94336.81;;;6.67;100.00
2192;BME280;1102;49.718;11.902;2023-03-14T05:07:38;94375.16;;;6.94;100.00
2192;BME280;1102;49.718;11.902;2023-03-14T05:10:31;94371.69;;;6.87;100.00
2192;BME280;1102;49.718;11.902;2023-03-14T05:13:16;94366.78;;;6.85;100.00
2192;BME280;1102;49.718;11.902;2023-03-14T05:16:10;94397.44;;;7.00;100.00
2192;BME280;1102;49.718;11.902;2023-03-14T05:19:07;94388.97;;;6.88;100.00
2192;BME280;1102;49.718;11.902;2023-03-14T05:21:45;94389.53;;;7.00;100.00
2192;BME280;1102;49.718;11.902;2023-03-14T05:24:38;94400.75;;;6.97;100.00
2192;BME280;1102;49.718;11.902;2023-03-14T05:27:24;94373.72;;;6.74;100.00
2192;BME280;1102;49.718;11.902;2023-03-14T05:30:10;94389.31;;;6.86;100.00
2192;BME280;1102;49.718;11.902;2023-03-14T05:33:02;94373.38;;;6.75;100.00
2192;BME280;1102;49.718;11.902;2023-03-14T05:35:53;94382.13;;;6.83;100.00
2192;BME280;1102;49.718;11.902;2023-03-14T05:38:40;94359.19;;;6.80;100.00
2192;BME280;1102;49.718;11.902;2023-03-14T05:41:24;94371.34;;;6.88;100.00
2192;BME280;1102;49.718;11.902;2023-03-14T05:44:24;94342.84;;;6.67;100.00
2192;BME280;1102;49.718;11.902;2023-03-14T05:47:09;94362.56;;;6.80;100.00
2192;BME280;1102;49.718;11.902;2023-03-14T05:50:04;94269.69;;;6.20;100.00
2192;BME280;1102;49.718;11.902;2023-03-14T05:52:45;94289.25;;;6.26;100.00
2192;BME280;1102;49.718;11.902;2023-03-14T05:55:32;94369.09;;;6.90;100.00
2192;BME280;1102;49.718;11.902;2023-03-14T05:58:16;94350.09;;;6.74;100.00
2192;BME280;1102;49.718;11.902;2023-03-14T06:01:03;94361.53;;;6.85;100.00
2192;BME280;1102;49.718;11.902;2023-03-14T06:03:44;94332.06;;;6.72;100.00
2192;BME280;1102;49.718;11.902;2023-03-14T06:06:11;94327.16;;;6.71;100.00
2192;BME280;1102;49.718;11.902;2023-03-14T06:08:37;94327.97;;;6.75;100.00
2192;BME280;1102;49.718;11.902;2023-03-14T06:11:05;94325.28;;;6.71;100.00
2192;BME280;1102;49.718;11.902;2023-03-14T06:13:32;94327.56;;;6.73;100.00
2192;BME280;1102;49.718;11.902;2023-03-14T06:15:58;94357.03;;;6.86;100.00
2192;BME280;1102;49.718;11.902;2023-03-14T06:18:25;94332.34;;;6.67;100.00
2192;BME280;1102;49.718;11.902;2023-03-14T06:20:54;94345.25;;;6.76;100.00
2192;BME280;1102;49.718;11.902;2023-03-14T06:23:24;94370.56;;;6.88;100.00
2192;BME280;1102;49.718;11.902;2023-03-14T06:25:52;94360.53;;;6.93;100.00
2192;BME280;1102;49.718;11.902;2023-03-14T06:28:22;94350.97;;;6.81;100.00
2192;BME280;1102;49.718;11.902;2023-03-14T06:30:52;94305.16;;;6.56;100.00
2192;BME280;1102;49.718;11.902;2023-03-14T06:33:18;94337.66;;;6.71;100.00
2192;BME280;1102;49.718;11.902;2023-03-14T06:35:45;94335.44;;;6.73;100.00
2192;BME280;1102;49.718;11.902;2023-03-14T06:38:12;94364.66;;;6.94;100.00
2192;BME280;1102;49.718;11.902;2023-03-14T06:40:39;94288.13;;;6.46;100.00
2192;BME280;1102;49.718;11.902;2023-03-14T06:43:10;94332.88;;;6.76;100.00
2192;BME280;1102;49.718;11.902;2023-03-14T06:45:39;94355.56;;;6.88;100.00
2192;BME280;1102;49.718;11.902;2023-03-14T06:48:06;94355.56;;;6.88;100.00
2192;BME280;1102;49.718;11.902;2023-03-14T06:50:43;94373.47;;;7.05;100.00
2192;BME280;1102;49.718;11.902;2023-03-14T06:53:09;94379.91;;;7.08;100.00
2192;BME280;1102;49.718;11.902;2023-03-14T06:55:40;94341.31;;;6.89;100.00
2192;BME280;1102;49.718;11.902;2023-03-14T06:58:07;94352.00;;;7.00;100.00
2192;BME280;1102;49.718;11.902;2023-03-14T07:00:40;94344.84;;;6.97;100.00
2192;BME280;1102;49.718;11.902;2023-03-14T07:03:07;94389.47;;;7.20;100.00
2192;BME280;1102;49.718;11.902;2023-03-14T07:05:37;94350.91;;;7.01;100.00
2192;BME280;1102;49.718;11.902;2023-03-14T07:08:10;94378.56;;;7.18;100.00
2192;BME280;1102;49.718;11.902;2023-03-14T07:10:36;94376.59;;;7.11;100.00
2192;BME280;1102;49.718;11.902;2023-03-14T07:13:08;94373.59;;;7.13;100.00
2192;BME280;1102;49.718;11.902;2023-03-14T07:15:45;94365.50;;;7.21;100.00
2192;BME280;1102;49.718;11.902;2023-03-14T07:18:12;94373.00;;;7.23;100.00
2192;BME280;1102;49.718;11.902;2023-03-14T07:20:39;94399.56;;;7.40;100.00
2192;BME280;1102;49.718;11.902;2023-03-14T07:23:07;94384.78;;;7.32;100.00
2192;BME280;1102;49.718;11.902;2023-03-14T07:25:42;94361.22;;;7.13;100.00
2192;BME280;1102;49.718;11.902;2023-03-14T07:28:09;94381.78;;;7.34;100.00
2192;BME280;1102;49.718;11.902;2023-03-14T07:30:38;94369.28;;;7.24;100.00
2192;BME280;1102;49.718;11.902;2023-03-14T07:33:11;94389.66;;;7.57;100.00
2192;BME280;1102;49.718;11.902;2023-03-14T07:35:37;94371.56;;;7.52;100.00
2192;BME280;1102;49.718;11.902;2023-03-14T07:38:04;94405.38;;;7.80;100.00
2192;BME280;1102;49.718;11.902;2023-03-14T07:40:36;94383.94;;;7.78;100.00
2192;BME280;1102;49.718;11.902;2023-03-14T07:43:04;94393.81;;;7.88;100.00
2192;BME280;1102;49.718;11.902;2023-03-14T07:45:47;94367.03;;;7.79;100.00
2192;BME280;1102;49.718;11.902;2023-03-14T07:48:24;94364.84;;;7.84;100.00
2192;BME280;1102;49.718;11.902;2023-03-14T07:50:54;94357.50;;;7.97;100.00
2192;BME280;1102;49.718;11.902;2023-03-14T07:53:22;94349.97;;;7.95;100.00
2192;BME280;1102;49.718;11.902;2023-03-14T07:55:51;94402.91;;;8.20;100.00
2192;BME280;1102;49.718;11.902;2023-03-14T07:58:18;94380.13;;;8.02;100.00
2192;BME280;1102;49.718;11.902;2023-03-14T08:00:45;94405.09;;;8.15;100.00
2192;BME280;1102;49.718;11.902;2023-03-14T08:03:12;94376.31;;;7.99;100.00
2192;BME280;1102;49.718;11.902;2023-03-14T08:05:38;94397.63;;;8.20;100.00
2192;BME280;1102;49.718;11.902;2023-03-14T08:08:06;94362.25;;;7.88;100.00
2192;BME280;1102;49.718;11.902;2023-03-14T08:10:32;94402.03;;;8.13;100.00
2192;BME280;1102;49.718;11.902;2023-03-14T08:13:00;94401.75;;;8.18;100.00
2192;BME280;1102;49.718;11.902;2023-03-14T08:15:29;94410.06;;;8.23;100.00
2192;BME280;1102;49.718;11.902;2023-03-14T08:17:56;94389.56;;;8.06;100.00
2192;BME280;1102;49.718;11.902;2023-03-14T08:20:25;94421.47;;;8.31;100.00
2192;BME280;1102;49.718;11.902;2023-03-14T08:22:55;94413.47;;;8.24;100.00
2192;BME280;1102;49.718;11.902;2023-03-14T08:25:22;94426.78;;;8.35;100.00
2192;BME280;1102;49.718;11.902;2023-03-14T08:27:49;94404.97;;;8.34;100.00
2192;BME280;1102;49.718;11.902;2023-03-14T08:30:18;94417.53;;;8.48;100.00
2192;BME280;1102;49.718;11.902;2023-03-14T08:32:45;94417.97;;;8.53;100.00
2192;BME280;1102;49.718;11.902;2023-03-14T08:35:12;94383.94;;;8.38;100.00
2192;BME280;1102;49.718;11.902;2023-03-14T08:37:39;94400.25;;;8.50;100.00
2192;BME280;1102;49.718;11.902;2023-03-14T08:40:06;94407.78;;;8.52;100.00
2192;BME280;1102;49.718;11.902;2023-03-14T08:42:35;94411.53;;;8.51;100.00
2192;BME280;1102;49.718;11.902;2023-03-14T08:45:03;94415.31;;;8.50;100.00
2192;BME280;1102;49.718;11.902;2023-03-14T08:47:30;94400.72;;;8.56;100.00
2192;BME280;1102;49.718;11.902;2023-03-14T08:49:57;94377.16;;;8.37;100.00
2192;BME280;1102;49.718;11.902;2023-03-14T08:52:23;94364.31;;;8.32;100.00
2192;BME280;1102;49.718;11.902;2023-03-14T08:54:50;94369.75;;;8.46;100.00
2192;BME280;1102;49.718;11.902;2023-03-14T08:57:17;94408.03;;;8.73;100.00
2192;BME280;1102;49.718;11.902;2023-03-14T08:59:43;94380.41;;;8.56;100.00
2192;BME280;1102;49.718;11.902;2023-03-14T09:02:11;94388.31;;;8.60;100.00
2192;BME280;1102;49.718;11.902;2023-03-14T09:04:39;94289.09;;;7.97;100.00
2192;BME280;1102;49.718;11.902;2023-03-14T09:07:05;94388.38;;;8.67;100.00
2192;BME280;1102;49.718;11.902;2023-03-14T09:09:32;94388.38;;;8.67;100.00
2192;BME280;1102;49.718;11.902;2023-03-14T09:11:59;94399.38;;;8.73;100.00
2192;BME280;1102;49.718;11.902;2023-03-14T09:14:25;94401.31;;;8.79;100.00
2192;BME280;1102;49.718;11.902;2023-03-14T09:16:52;94350.53;;;8.42;100.00
2192;BME280;1102;49.718;11.902;2023-03-14T09:19:20;94374.47;;;8.67;100.00
2192;BME280;1102;49.718;11.902;2023-03-14T09:21:47;94392.97;;;8.74;100.00
2192;BME280;1102;49.718;11.902;2023-03-14T09:24:14;94391.22;;;8.85;100.00
2192;BME280;1102;49.718;11.902;2023-03-14T09:26:41;94415.47;;;9.05;100.00
2192;BME280;1102;49.718;11.902;2023-03-14T09:29:07;94374.59;;;8.81;100.00
2192;BME280;1102;49.718;11.902;2023-03-14T09:31:34;94410.59;;;9.07;100.00
2192;BME280;1102;49.718;11.902;2023-03-14T09:34:01;94408.06;;;9.17;100.00
2192;BME280;1102;49.718;11.902;2023-03-14T09:36:28;94421.97;;;9.14;100.00
2192;BME280;1102;49.718;11.902;2023-03-14T09:38:55;94399.72;;;9.08;100.00
2192;BME280;1102;49.718;11.902;2023-03-14T09:41:28;94381.53;;;8.96;100.00
2192;BME280;1102;49.718;11.902;2023-03-14T09:44:10;94395.25;;;9.16;100.00
2192;BME280;1102;49.718;11.902;2023-03-14T09:46:39;94369.47;;;8.95;100.00
2192;BME280;1102;49.718;11.902;2023-03-14T09:49:34;94394.13;;;9.21;100.00
2192;BME280;1102;49.718;11.902;2023-03-14T09:52:06;94415.00;;;9.36;100.00
2192;BME280;1102;49.718;11.902;2023-03-14T09:54:55;94338.59;;;8.96;100.00
2192;BME280;1102;49.718;11.902;2023-03-14T09:57:24;94400.25;;;9.32;100.00
2192;BME280;1102;49.718;11.902;2023-03-14T09:59:54;94378.03;;;9.33;100.00
2192;BME280;1102;49.718;11.902;2023-03-14T10:02:24;94409.94;;;9.65;100.00
2192;BME280;1102;49.718;11.902;2023-03-14T10:04:53;94381.50;;;9.40;100.00
2192;BME280;1102;49.718;11.902;2023-03-14T10:07:31;94409.19;;;9.68;100.00
2192;BME280;1102;49.718;11.902;2023-03-14T10:09:59;94372.56;;;9.56;100.00
2192;BME280;1102;49.718;11.902;2023-03-14T10:12:34;94396.38;;;9.70;100.00
2192;BME280;1102;49.718;11.902;2023-03-14T10:15:05;94403.97;;;9.75;100.00
2192;BME280;1102;49.718;11.902;2023-03-14T10:17:46;94414.81;;;9.63;100.00
2192;BME280;1102;49.718;11.902;2023-03-14T10:22:54;94383.00;;;9.41;100.00
2192;BME280;1102;49.718;11.902;2023-03-14T10:25:30;94396.66;;;9.51;100.00
2192;BME280;1102;49.718;11.902;2023-03-14T10:27:58;94400.72;;;9.41;100.00
2192;BME280;1102;49.718;11.902;2023-03-14T10:30:34;94410.53;;;9.44;100.00
2192;BME280;1102;49.718;11.902;2023-03-14T10:33:21;94387.44;;;9.27;100.00
2192;BME280;1102;49.718;11.902;2023-03-14T10:35:58;94417.75;;;9.51;100.00
2192;BME280;1102;49.718;11.902;2023-03-14T10:38:29;94417.41;;;9.59;100.00
2192;BME280;1102;49.718;11.902;2023-03-14T10:40:56;94393.25;;;9.50;100.00
2192;BME280;1102;49.718;11.902;2023-03-14T10:43:35;94391.78;;;9.56;100.00
2192;BME280;1102;49.718;11.902;2023-03-14T10:46:12;94385.44;;;9.68;100.00
2192;BME280;1102;49.718;11.902;2023-03-14T10:49:05;94414.56;;;9.78;100.00
2192;BME280;1102;49.718;11.902;2023-03-14T10:51:33;94411.53;;;9.80;100.00
2192;BME280;1102;49.718;11.902;2023-03-14T10:54:13;94414.84;;;9.70;100.00
2192;BME280;1102;49.718;11.902;2023-03-14T10:56:41;94400.00;;;9.47;100.00
2192;BME280;1102;49.718;11.902;2023-03-14T10:59:13;94424.28;;;9.67;100.00
2192;BME280;1102;49.718;11.902;2023-03-14T11:04:56;94430.31;;;9.71;100.00
2192;BME280;1102;49.718;11.902;2023-03-14T11:10:31;94426.44;;;9.51;100.00
2192;BME280;1102;49.718;11.902;2023-03-14T11:13:22;94431.97;;;9.39;100.00
2192;BME280;1102;49.718;11.902;2023-03-14T11:16:03;94420.00;;;9.08;100.00
2192;BME280;1102;49.718;11.902;2023-03-14T11:21:09;94394.25;;;8.87;100.00
2192;BME280;1102;49.718;11.902;2023-03-14T11:23:46;94426.84;;;9.09;100.00
2192;BME280;1102;49.718;11.902;2023-03-14T11:26:28;94387.81;;;8.84;100.00
2192;BME280;1102;49.718;11.902;2023-03-14T11:29:01;94385.50;;;8.79;100.00
2192;BME280;1102;49.718;11.902;2023-03-14T11:31:32;94414.94;;;8.88;100.00
2192;BME280;1102;49.718;11.902;2023-03-14T11:34:22;94407.66;;;8.75;100.00
2192;BME280;1102;49.718;11.902;2023-03-14T11:37:07;94386.84;;;8.63;100.00
2192;BME280;1102;49.718;11.902;2023-03-14T11:39:41;94393.88;;;8.51;100.00
2192;BME280;1102;49.718;11.902;2023-03-14T11:42:14;94386.66;;;8.45;100.00
2192;BME280;1102;49.718;11.902;2023-03-14T11:44:46;94343.91;;;8.25;100.00
2192;BME280;1102;49.718;11.902;2023-03-14T11:49:51;94342.09;;;8.29;100.00
2192;BME280;1102;49.718;11.902;2023-03-14T11:52:21;94357.53;;;8.30;100.00
2192;BME280;1102;49.718;11.902;2023-03-14T11:54:56;94338.38;;;8.34;100.00
2192;BME280;1102;49.718;11.902;2023-03-14T11:57:26;94301.16;;;8.35;100.00
2192;BME280;1102;49.718;11.902;2023-03-14T12:06:01;94344.75;;;9.10;100.00
2192;BME280;1102;49.718;11.902;2023-03-14T12:08:50;94322.56;;;9.18;100.00
2192;BME280;1102;49.718;11.902;2023-03-14T12:11:20;94352.84;;;10.08;100.00
2192;BME280;1102;49.718;11.902;2023-03-14T12:13:50;94337.94;;;10.51;100.00
2192;BME280;1102;49.718;11.902;2023-03-14T12:18:53;94345.69;;;10.08;100.00
2192;BME280;1102;49.718;11.902;2023-03-14T12:21:20;94338.59;;;10.23;100.00
2192;BME280;1102;49.718;11.902;2023-03-14T12:23:51;94337.81;;;10.16;100.00
2192;BME280;1102;49.718;11.902;2023-03-14T12:26:24;94359.03;;;10.41;100.00
2192;BME280;1102;49.718;11.902;2023-03-14T12:34:24;94339.75;;;10.26;100.00
2192;BME280;1102;49.718;11.902;2023-03-14T12:42:17;94337.94;;;11.83;100.00
2192;BME280;1102;49.718;11.902;2023-03-14T12:44:52;94317.59;;;11.30;100.00
2192;BME280;1102;49.718;11.902;2023-03-14T12:49:47;94340.50;;;12.81;100.00
2192;BME280;1102;49.718;11.902;2023-03-14T12:52:19;94322.78;;;11.94;100.00
2192;BME280;1102;49.718;11.902;2023-03-14T12:57:55;94327.41;;;10.80;100.00
2192;BME280;1102;49.718;11.902;2023-03-14T13:00:31;94320.22;;;10.73;100.00
2192;BME280;1102;49.718;11.902;2023-03-14T13:03:18;94335.75;;;11.14;100.00
2192;BME280;1102;49.718;11.902;2023-03-14T13:05:57;94332.97;;;12.03;100.00
2192;BME280;1102;49.718;11.902;2023-03-14T13:08:44;94265.13;;;10.82;100.00
2192;BME280;1102;49.718;11.902;2023-03-14T13:11:16;94295.69;;;10.62;100.00
2192;BME280;1102;49.718;11.902;2023-03-14T13:13:48;94341.00;;;10.85;100.00
2192;BME280;1102;49.718;11.902;2023-03-14T13:16:21;94331.94;;;10.79;100.00
2192;BME280;1102;49.718;11.902;2023-03-14T13:18:50;94332.28;;;10.60;100.00
2192;BME280;1102;49.718;11.902;2023-03-14T13:21:20;94332.66;;;10.51;100.00
2192;BME280;1102;49.718;11.902;2023-03-14T13:24:02;94317.88;;;10.29;100.00
2192;BME280;1102;49.718;11.902;2023-03-14T13:26:41;94334.84;;;10.28;100.00
2192;BME280;1102;49.718;11.902;2023-03-14T13:31:52;94325.91;;;9.74;100.00
2192;BME280;1102;49.718;11.902;2023-03-14T13:34:19;94321.38;;;9.64;100.00
2192;BME280;1102;49.718;11.902;2023-03-14T13:36:46;94303.59;;;9.54;100.00
2192;BME280;1102;49.718;11.902;2023-03-14T13:39:18;94282.06;;;10.53;100.00
2192;BME280;1102;49.718;11.902;2023-03-14T13:41:47;94290.03;;;10.85;100.00
2192;BME280;1102;49.718;11.902;2023-03-14T13:46:50;94306.00;;;12.22;100.00
2192;BME280;1102;49.718;11.902;2023-03-14T13:49:24;94276.75;;;11.45;100.00
2192;BME280;1102;49.718;11.902;2023-03-14T13:51:52;94277.56;;;10.89;100.00
2192;BME280;1102;49.718;11.902;2023-03-14T13:54:21;94269.22;;;10.55;100.00
2192;BME280;1102;49.718;11.902;2023-03-14T13:56:49;94316.03;;;10.54;100.00
2192;BME280;1102;49.718;11.902;2023-03-14T14:01:53;94335.59;;;10.21;100.00
2192;BME280;1102;49.718;11.902;2023-03-14T14:04:24;94353.63;;;9.43;100.00
2192;BME280;1102;49.718;11.902;2023-03-14T14:06:55;94291.72;;;8.71;100.00
2192;BME280;1102;49.718;11.902;2023-03-14T14:09:51;94357.09;;;8.58;100.00
2192;BME280;1102;49.718;11.902;2023-03-14T14:12:38;94304.47;;;7.95;100.00
2192;BME280;1102;49.718;11.902;2023-03-14T14:15:17;94340.84;;;8.19;100.00
2192;BME280;1102;49.718;11.902;2023-03-14T14:17:52;94298.31;;;7.84;100.00
2192;BME280;1102;49.718;11.902;2023-03-14T14:22:48;94357.38;;;7.60;100.00
2192;BME280;1102;49.718;11.902;2023-03-14T14:25:16;94363.06;;;7.35;100.00
2192;BME280;1102;49.718;11.902;2023-03-14T14:27:47;94395.88;;;7.45;100.00